Impacts METAR Board
IDs:

KSEA - Seattle-Tacoma Intl, WA, US

Updated at: 2300 UTC 18 Nov 2018
Potential Impact None Slight Moderate High
Time 18/11Z 18/12Z 18/13Z 18/14Z 18/15Z 18/16Z 18/17Z 18/18Z 18/19Z 18/20Z 18/21Z 18/22Z 18/23Z
Temp40 40 40 39 38 39 42 45 49 52 53 54 54
Dewpt34 35 35 34 32 34 33 33 34 33 33 33 35
Altim30.22 30.21 30.20 30.19 30.20 30.20 30.20 30.20 30.20 30.18 30.17 30.16 30.15
VIS10 10 10 10 10 10 10 10 10 10 10 10 10
CIG-- -- -- -- -- -- -- -- -- -- -- -- --
CoverCLRCLRCLRCLRFEWSCTSCTFEWFEWCLRCLRCLRCLR
FltCatVFRVFRVFRVFRVFRVFRVFRVFRVFRVFRVFRVFRVFR
WX--------------------------
WDir103030020103602010200360340
WSpd9 11 8 5 9 7 7 7 4 3 0 4 4
WGst-- -- -- -- -- -- -- -- -- -- -- -- --
Raw hourly METARs
KSEA 181053Z 01009KT 10SM CLR 04/01 A3022 RMK AO2 SLP239 T00440011
KSEA 181153Z 03011KT 10SM CLR 04/02 A3021 RMK AO2 SLP237 T00440017 10067 20033 58002
KSEA 181253Z 03008KT 10SM CLR 04/02 A3020 RMK AO2 SLP235 T00440017
KSEA 181353Z VRB05KT 10SM CLR 04/01 A3019 RMK AO2 SLP233 T00390011
KSEA 181453Z 02009KT 10SM FEW170 03/00 A3020 RMK AO2 SLP235 T00330000 55004
KSEA 181553Z 01007KT 10SM SCT220 04/01 A3020 RMK AO2 SLP235 T00390011
KSEA 181653Z 36007KT 10SM SCT230 06/01 A3020 RMK AO2 SLP235 T00560006
KSEA 181753Z 02007KT 10SM FEW230 07/01 A3020 RMK AO2 SLP235 T00720006 10078 20033 50000
KSEA 181853Z 01004KT 10SM FEW230 09/01 A3020 RMK AO2 SLP234 T00940011
KSEA 181953Z 02003KT 10SM CLR 11/01 A3018 RMK AO2 SLP228 T01110006
KSEA 182053Z 00000KT 10SM CLR 12/01 A3017 RMK AO2 SLP224 T01170006 58010
KSEA 182153Z 36004KT 10SM CLR 12/01 A3016 RMK AO2 SLP220 T01220006
KSEA 182253Z 34004KT 10SM CLR 12/02 A3015 RMK AO2 SLP217 T01220017



Page loaded:  23:30 UTC  |   03:30 PM Pacific  |   04:30 PM Mountain  |   05:30 PM Central  |   06:30 PM Eastern

 

ADVISORIES

FORECASTS

FORECASTS

OBSERVATIONS

USER TOOLS

ABOUT US